createdAt,value
2022-12-25T00:01:13.037Z,0.82
2022-12-25T00:03:41.753Z,0.70
2022-12-25T00:06:10.205Z,0.70
2022-12-25T00:08:39.391Z,0.70
2022-12-25T00:11:12.362Z,1.25
2022-12-25T00:13:41.128Z,1.00
2022-12-25T00:16:13.427Z,0.85
2022-12-25T00:18:42.157Z,0.55
2022-12-25T00:21:11.784Z,0.82
2022-12-25T00:23:40.340Z,2.55
2022-12-25T00:26:11.935Z,0.88
2022-12-25T00:28:40.374Z,0.70
2022-12-25T00:31:18.661Z,0.40
2022-12-25T00:33:49.414Z,0.73
2022-12-25T00:36:20.252Z,0.45
2022-12-25T00:38:48.772Z,0.10
2022-12-25T00:41:44.045Z,0.50
2022-12-25T00:44:13.902Z,0.57
2022-12-25T00:46:42.953Z,1.42
2022-12-25T00:49:12.481Z,0.95
2022-12-25T00:51:41.141Z,0.20
2022-12-25T00:54:09.299Z,0.60
2022-12-25T00:56:37.502Z,0.70
2022-12-25T00:59:06.172Z,0.45
2022-12-25T01:01:34.694Z,0.70
2022-12-25T01:04:03.275Z,0.80
2022-12-25T01:06:31.728Z,0.40
2022-12-25T01:09:18.389Z,0.52
2022-12-25T01:11:47.051Z,0.70
2022-12-25T01:14:15.473Z,0.40
2022-12-25T01:16:44.023Z,0.47
2022-12-25T01:19:13.315Z,0.52
2022-12-25T01:21:41.381Z,0.30
2022-12-25T01:24:09.829Z,0.60
2022-12-25T01:26:38.134Z,0.57
2022-12-25T01:29:07.325Z,0.77
2022-12-25T01:31:35.889Z,0.68
2022-12-25T01:34:04.448Z,0.52
2022-12-25T01:36:32.637Z,0.37
2022-12-25T01:39:01.007Z,0.22
2022-12-25T01:41:29.520Z,0.70
2022-12-25T01:44:15.940Z,0.40
2022-12-25T01:46:44.479Z,0.37
2022-12-25T01:49:18.410Z,0.40
2022-12-25T01:51:58.698Z,0.62
2022-12-25T01:54:31.664Z,0.60
2022-12-25T01:57:04.709Z,0.80
2022-12-25T01:59:33.361Z,0.70
2022-12-25T02:02:01.940Z,0.50
2022-12-25T02:04:40.338Z,0.25
2022-12-25T02:07:20.191Z,0.82
2022-12-25T02:09:49.747Z,2.00
2022-12-25T02:12:22.788Z,2.50
2022-12-25T02:14:55.410Z,1.62
2022-12-25T02:17:51.353Z,0.68
2022-12-25T02:20:42.459Z,0.30
2022-12-25T02:23:46.929Z,0.68
2022-12-25T02:26:50.756Z,0.85
2022-12-25T02:29:42.784Z,1.10
2022-12-25T02:32:21.691Z,3.97
2022-12-25T02:35:11.983Z,4.30
2022-12-25T02:37:48.725Z,3.83
2022-12-25T02:40:19.828Z,3.65
2022-12-25T02:43:45.251Z,1.62
2022-12-25T02:46:36.422Z,1.15
2022-12-25T02:49:28.822Z,0.88
2022-12-25T02:52:44.468Z,0.62
2022-12-25T02:55:34.987Z,1.40
2022-12-25T02:58:26.070Z,2.33
2022-12-25T03:01:25.814Z,1.48
2022-12-25T03:04:16.004Z,0.55
2022-12-25T03:07:00.827Z,0.37
2022-12-25T03:09:54.612Z,0.73
2022-12-25T03:12:37.577Z,0.70
2022-12-25T03:15:26.645Z,0.82
2022-12-25T03:17:59.252Z,1.35
2022-12-25T03:20:45.868Z,1.40
2022-12-25T03:23:38.187Z,0.30
2022-12-25T03:26:25.869Z,0.65
2022-12-25T03:28:55.359Z,0.70
2022-12-25T03:31:51.259Z,0.50
2022-12-25T03:34:46.019Z,0.57
2022-12-25T03:37:49.574Z,0.40
2022-12-25T03:40:40.721Z,0.80
2022-12-25T03:43:34.716Z,0.93
2022-12-25T03:46:27.069Z,0.40
2022-12-25T03:49:23.849Z,0.50
2022-12-25T03:52:14.732Z,0.75
2022-12-25T03:55:04.471Z,0.40
2022-12-25T03:57:53.951Z,1.05
2022-12-25T04:00:40.507Z,0.60
2022-12-25T04:03:27.622Z,0.80
2022-12-25T04:06:17.003Z,0.50
2022-12-25T04:09:03.792Z,0.60
2022-12-25T04:11:50.577Z,0.57
2022-12-25T04:14:37.892Z,0.50
2022-12-25T04:17:24.869Z,0.40
2022-12-25T04:20:12.392Z,0.88
2022-12-25T04:22:59.052Z,1.17
2022-12-25T04:25:45.921Z,1.80
2022-12-25T04:28:32.793Z,1.45
2022-12-25T04:31:20.477Z,2.22
2022-12-25T04:34:07.043Z,3.00
2022-12-25T04:36:35.626Z,1.40
2022-12-25T04:39:04.091Z,1.30
2022-12-25T04:41:32.174Z,2.00
2022-12-25T04:44:00.517Z,3.87
2022-12-25T04:46:28.749Z,1.75
2022-12-25T04:48:57.004Z,2.62
2022-12-25T04:51:26.243Z,2.50
2022-12-25T04:53:54.629Z,5.18
2022-12-25T04:56:23.355Z,5.57
2022-12-25T04:58:51.965Z,5.40
2022-12-25T05:01:20.186Z,6.22
2022-12-25T05:03:48.290Z,4.55
2022-12-25T05:06:17.244Z,3.78
2022-12-25T05:08:45.632Z,7.35
2022-12-25T05:11:16.008Z,4.82
2022-12-25T05:13:44.922Z,4.43
2022-12-25T05:16:17.269Z,5.85
2022-12-25T05:18:51.886Z,3.87
2022-12-25T05:21:23.463Z,1.33
2022-12-25T05:23:53.272Z,0.60
2022-12-25T05:26:24.956Z,1.17
2022-12-25T05:28:54.609Z,1.20
2022-12-25T05:31:22.829Z,0.98
2022-12-25T05:33:52.443Z,0.80
2022-12-25T05:36:21.336Z,0.75
2022-12-25T05:38:50.940Z,0.73
2022-12-25T05:41:19.162Z,1.10
2022-12-25T05:43:47.856Z,0.70
2022-12-25T05:46:16.318Z,0.98
2022-12-25T05:48:44.413Z,1.08
2022-12-25T05:51:14.824Z,1.58
2022-12-25T05:53:43.478Z,1.50
2022-12-25T05:56:11.734Z,1.42
2022-12-25T05:58:41.065Z,1.87
2022-12-25T06:01:16.540Z,1.48
2022-12-25T06:03:45.499Z,2.50
2022-12-25T06:06:14.686Z,1.50
2022-12-25T06:08:42.757Z,1.33
2022-12-25T06:11:12.708Z,1.15
2022-12-25T06:13:41.268Z,0.62
2022-12-25T06:16:11.344Z,0.73
2022-12-25T06:18:42.588Z,0.90
2022-12-25T06:21:12.604Z,1.00
2022-12-25T06:23:42.353Z,1.73
2022-12-25T06:26:14.035Z,1.92
2022-12-25T06:28:42.963Z,3.00
2022-12-25T06:31:17.532Z,2.30
2022-12-25T06:33:46.667Z,2.70
2022-12-25T06:36:21.810Z,2.97
2022-12-25T06:38:50.877Z,2.78
2022-12-25T06:41:22.430Z,1.80
2022-12-25T06:43:53.063Z,3.05
2022-12-25T06:46:22.470Z,2.08
2022-12-25T06:48:51.301Z,2.85
2022-12-25T06:51:25.009Z,1.73
2022-12-25T06:53:55.766Z,2.50
2022-12-25T06:56:26.927Z,5.75
2022-12-25T06:59:00.692Z,4.72
2022-12-25T07:01:50.554Z,4.53
2022-12-25T07:04:39.388Z,3.05
2022-12-25T07:07:09.501Z,4.53
2022-12-25T07:09:39.281Z,4.12
2022-12-25T07:12:13.426Z,4.20
2022-12-25T07:14:42.382Z,8.55
2022-12-25T07:17:10.486Z,6.50
2022-12-25T07:19:44.601Z,5.72
2022-12-25T07:22:14.532Z,5.85
2022-12-25T07:24:42.823Z,2.65
2022-12-25T07:27:11.174Z,3.55
2022-12-25T07:29:39.525Z,3.22
2022-12-25T07:32:07.815Z,2.58
2022-12-25T07:34:35.975Z,3.90
2022-12-25T07:37:04.322Z,2.60
2022-12-25T07:39:34.128Z,2.58
2022-12-25T07:42:02.442Z,4.72
2022-12-25T07:44:30.791Z,4.85
2022-12-25T07:46:58.864Z,4.65
2022-12-25T07:49:27.105Z,4.15
2022-12-25T07:51:55.446Z,7.03
2022-12-25T07:54:23.641Z,5.97
2022-12-25T07:56:52.741Z,4.35
2022-12-25T07:59:21.474Z,5.57
2022-12-25T08:01:50.733Z,5.03
2022-12-25T08:04:19.596Z,6.87
2022-12-25T08:06:47.639Z,6.00
2022-12-25T08:09:15.873Z,5.93
2022-12-25T08:11:47.820Z,5.45
2022-12-25T08:14:16.080Z,4.97
2022-12-25T08:16:44.750Z,4.50
2022-12-25T08:19:14.567Z,4.53
2022-12-25T08:21:42.713Z,4.55
2022-12-25T08:24:11.757Z,4.55
2022-12-25T08:26:39.853Z,5.57
2022-12-25T08:29:07.922Z,4.62
2022-12-25T08:31:40.837Z,3.92
2022-12-25T08:34:12.385Z,3.45
2022-12-25T08:36:41.609Z,3.78
2022-12-25T08:39:09.978Z,3.60
2022-12-25T08:41:38.249Z,3.45
2022-12-25T08:44:06.839Z,3.62
2022-12-25T08:46:35.282Z,3.62
2022-12-25T08:49:03.493Z,4.53
2022-12-25T08:51:32.167Z,4.40
2022-12-25T08:54:01.203Z,3.25
2022-12-25T08:56:29.583Z,3.53
2022-12-25T08:58:58.297Z,3.40
2022-12-25T09:01:26.949Z,2.22
2022-12-25T09:03:55.356Z,2.25
2022-12-25T09:06:23.859Z,1.85
2022-12-25T09:08:51.965Z,2.22
2022-12-25T09:11:20.780Z,2.05
2022-12-25T09:13:49.381Z,2.25
2022-12-25T09:16:20.675Z,1.83
2022-12-25T09:18:49.321Z,1.87
2022-12-25T09:21:18.561Z,3.00
2022-12-25T09:23:46.658Z,2.10
2022-12-25T09:26:17.283Z,1.90
2022-12-25T09:28:51.194Z,1.90
2022-12-25T09:31:22.257Z,1.80
2022-12-25T09:33:51.865Z,2.00
2022-12-25T09:36:23.266Z,2.50
2022-12-25T09:38:52.367Z,2.87
2022-12-25T09:41:56.668Z,2.85
2022-12-25T09:44:35.038Z,2.50
2022-12-25T09:47:08.359Z,2.62
2022-12-25T09:49:49.757Z,2.70
2022-12-25T09:52:28.405Z,2.22
2022-12-25T09:55:03.488Z,1.95
2022-12-25T09:57:32.948Z,2.20
2022-12-25T10:00:01.502Z,3.03
2022-12-25T10:03:22.560Z,4.00
2022-12-25T10:06:21.955Z,2.80
2022-12-25T10:08:56.327Z,2.53
2022-12-25T10:11:30.495Z,3.72
2022-12-25T10:14:06.571Z,2.30
2022-12-25T10:16:51.028Z,2.25
2022-12-25T10:19:27.989Z,1.90
2022-12-25T10:22:01.415Z,2.37
2022-12-25T10:24:59.926Z,2.78
2022-12-25T10:27:40.744Z,2.67
2022-12-25T10:30:21.023Z,2.80
2022-12-25T10:32:50.356Z,2.62
2022-12-25T10:35:21.929Z,2.40
2022-12-25T10:38:10.201Z,3.00
2022-12-25T10:41:06.928Z,2.30
2022-12-25T10:43:56.368Z,2.97
2022-12-25T10:46:28.951Z,2.40
2022-12-25T10:48:59.772Z,2.10
2022-12-25T10:51:39.217Z,2.53
2022-12-25T10:54:23.622Z,2.67
2022-12-25T10:56:57.515Z,2.60
2022-12-25T10:59:28.004Z,2.30
2022-12-25T11:02:04.188Z,2.30
2022-12-25T11:04:35.773Z,2.60
2022-12-25T11:07:14.616Z,2.25
2022-12-25T11:09:53.850Z,2.53
2022-12-25T11:12:31.863Z,3.05
2022-12-25T11:15:04.127Z,3.37
2022-12-25T11:17:32.384Z,3.20
2022-12-25T11:20:01.808Z,2.97
2022-12-25T11:22:29.857Z,3.28
2022-12-25T11:25:10.979Z,2.85
2022-12-25T11:27:39.462Z,3.00
2022-12-25T11:30:16.061Z,2.10
2022-12-25T11:32:48.580Z,2.60
2022-12-25T11:35:18.703Z,2.90
2022-12-25T11:37:52.310Z,3.72
2022-12-25T11:40:42.292Z,2.53
2022-12-25T11:43:13.623Z,2.53
2022-12-25T11:45:50.402Z,2.65
2022-12-25T11:48:25.908Z,2.60
2022-12-25T11:51:02.969Z,3.12
2022-12-25T11:53:41.346Z,2.65
2022-12-25T11:56:14.858Z,2.67
2022-12-25T11:58:52.418Z,2.80
2022-12-25T12:01:44.523Z,2.58
2022-12-25T12:04:24.411Z,2.05
2022-12-25T12:07:21.923Z,3.50
2022-12-25T12:10:19.667Z,3.03
2022-12-25T12:13:01.293Z,2.40
2022-12-25T12:15:45.527Z,2.45
2022-12-25T12:18:25.890Z,2.78
2022-12-25T12:21:02.155Z,3.22
2022-12-25T12:23:34.828Z,3.15
2022-12-25T12:26:04.547Z,2.87
2022-12-25T12:28:44.793Z,2.30
2022-12-25T12:31:14.385Z,2.65
2022-12-25T12:33:59.874Z,2.80
2022-12-25T12:36:36.237Z,2.90
2022-12-25T12:39:06.303Z,2.85
2022-12-25T12:41:44.554Z,2.50
2022-12-25T12:44:15.963Z,2.75
2022-12-25T12:46:55.516Z,3.08
2022-12-25T12:49:29.629Z,1.98
2022-12-25T12:52:24.475Z,2.05
2022-12-25T12:55:01.266Z,2.80
2022-12-25T12:57:34.464Z,2.08
2022-12-25T13:00:10.231Z,2.85
2022-12-25T13:03:07.405Z,2.72
2022-12-25T13:05:41.994Z,2.05
2022-12-25T13:08:19.368Z,2.58
2022-12-25T13:10:51.630Z,3.47
2022-12-25T13:13:25.969Z,3.78
2022-12-25T13:15:56.277Z,3.07
2022-12-25T13:18:24.684Z,2.90
2022-12-25T13:20:59.805Z,2.75
2022-12-25T13:23:36.604Z,3.37
2022-12-25T13:26:06.340Z,3.78
2022-12-25T13:28:36.909Z,3.30
2022-12-25T13:31:19.700Z,2.78
2022-12-25T13:34:26.632Z,2.70
2022-12-25T13:36:56.103Z,3.35
2022-12-25T13:39:25.203Z,2.30
2022-12-25T13:42:09.622Z,2.87
2022-12-25T13:44:44.670Z,2.33
2022-12-25T13:47:23.769Z,3.03
2022-12-25T13:49:55.217Z,2.30
2022-12-25T13:52:35.042Z,2.45
2022-12-25T13:55:05.310Z,2.17
2022-12-25T13:57:37.151Z,2.35
2022-12-25T14:00:07.739Z,3.20
2022-12-25T14:02:38.070Z,3.12
2022-12-25T14:05:26.930Z,2.92
2022-12-25T14:07:57.916Z,3.12
2022-12-25T14:10:30.287Z,3.20
2022-12-25T14:13:03.537Z,4.00
2022-12-25T14:15:33.705Z,5.47
2022-12-25T14:18:02.633Z,4.47
2022-12-25T14:20:54.785Z,4.43
2022-12-25T14:23:23.450Z,5.43
2022-12-25T14:25:52.022Z,5.87
2022-12-25T14:28:34.268Z,5.32
2022-12-25T14:31:04.908Z,4.72
2022-12-25T14:33:39.079Z,4.55
2022-12-25T14:36:07.859Z,3.10
2022-12-25T14:38:36.091Z,2.25
2022-12-25T14:41:07.829Z,3.28
2022-12-25T14:43:36.494Z,2.80
2022-12-25T14:46:09.123Z,3.08
2022-12-25T14:48:37.582Z,2.90
2022-12-25T14:51:17.294Z,2.45
2022-12-25T14:53:58.267Z,2.25
2022-12-25T14:56:29.627Z,3.25
2022-12-25T14:58:59.627Z,2.25
2022-12-25T15:01:39.261Z,3.35
2022-12-25T15:04:15.855Z,2.78
2022-12-25T15:07:01.720Z,3.42
2022-12-25T15:09:30.647Z,2.62
2022-12-25T15:11:59.450Z,2.22
2022-12-25T15:14:28.154Z,2.47
2022-12-25T15:17:00.682Z,3.15
2022-12-25T15:19:38.263Z,2.47
2022-12-25T15:22:07.132Z,2.62
2022-12-25T15:24:35.365Z,2.17
2022-12-25T15:27:05.449Z,1.92
2022-12-25T15:32:23.808Z,2.58
2022-12-25T15:34:53.880Z,2.80
2022-12-25T15:37:21.906Z,2.92
2022-12-25T15:39:49.956Z,3.10
2022-12-25T15:42:21.730Z,3.47
2022-12-25T15:44:50.315Z,7.07
2022-12-25T15:47:23.081Z,9.10
2022-12-25T15:49:51.500Z,6.57
2022-12-25T15:52:19.928Z,5.25
2022-12-25T15:54:48.027Z,4.18
2022-12-25T15:57:22.202Z,5.20
2022-12-25T15:59:50.565Z,3.30
2022-12-25T16:02:20.919Z,3.95
2022-12-25T16:04:51.252Z,4.22
2022-12-25T16:07:23.121Z,3.70
2022-12-25T16:09:52.149Z,3.90
2022-12-25T16:12:20.530Z,4.55
2022-12-25T16:14:48.585Z,3.60
2022-12-25T16:17:16.956Z,4.20
2022-12-25T16:19:45.236Z,3.97
2022-12-25T16:22:17.993Z,3.50
2022-12-25T16:24:46.530Z,3.95
2022-12-25T16:27:14.805Z,3.58
2022-12-25T16:29:42.892Z,4.45
2022-12-25T16:32:12.462Z,4.45
2022-12-25T16:34:40.873Z,5.07
2022-12-25T16:37:08.825Z,4.37
2022-12-25T16:39:39.333Z,4.35
2022-12-25T16:42:09.067Z,4.28
2022-12-25T16:44:37.651Z,5.45
2022-12-25T16:47:05.945Z,4.90
2022-12-25T16:49:34.845Z,5.43
2022-12-25T16:52:03.896Z,8.15
2022-12-25T16:54:32.068Z,6.20
2022-12-25T16:57:00.138Z,7.20
2022-12-25T16:59:29.409Z,6.37
2022-12-25T17:01:57.791Z,4.50
2022-12-25T17:04:27.796Z,4.47
2022-12-25T17:06:56.484Z,4.97
2022-12-25T17:09:25.241Z,5.72
2022-12-25T17:11:53.278Z,5.95
2022-12-25T17:14:22.010Z,6.22
2022-12-25T17:16:50.193Z,8.65
2022-12-25T17:19:20.499Z,9.15
2022-12-25T17:21:48.946Z,8.73
2022-12-25T17:24:17.512Z,6.32
2022-12-25T17:26:45.574Z,5.57
2022-12-25T17:29:19.957Z,7.80
2022-12-25T17:31:50.739Z,6.40
2022-12-25T17:34:19.421Z,6.75
2022-12-25T17:36:47.928Z,5.32
2022-12-25T17:39:16.421Z,5.85
2022-12-25T17:41:45.084Z,6.40
2022-12-25T17:44:13.313Z,7.72
2022-12-25T17:46:42.128Z,7.72
2022-12-25T17:49:15.272Z,7.93
2022-12-25T17:51:44.233Z,7.87
2022-12-25T17:54:12.610Z,9.48
2022-12-25T17:56:40.962Z,8.18
2022-12-25T17:59:18.645Z,15.10
2022-12-25T18:01:48.192Z,19.33
2022-12-25T18:04:17.122Z,12.90
2022-12-25T18:06:45.740Z,11.40
2022-12-25T18:09:14.188Z,7.35
2022-12-25T18:11:43.950Z,7.80
2022-12-25T18:14:15.433Z,8.52
2022-12-25T18:16:45.179Z,6.22
2022-12-25T18:19:15.159Z,8.80
2022-12-25T18:21:46.415Z,7.57
2022-12-25T18:24:14.527Z,3.62
2022-12-25T18:26:42.741Z,3.80
2022-12-25T18:29:11.230Z,4.70
2022-12-25T18:31:39.541Z,3.45
2022-12-25T18:34:07.606Z,3.28
2022-12-25T18:36:36.997Z,2.95
2022-12-25T18:39:05.049Z,2.62
2022-12-25T18:41:53.060Z,3.60
2022-12-25T18:44:21.569Z,3.25
2022-12-25T18:46:49.622Z,3.17
2022-12-25T18:49:17.891Z,3.60
2022-12-25T18:51:48.438Z,4.93
2022-12-25T18:54:16.602Z,5.93
2022-12-25T18:56:48.340Z,6.47
2022-12-25T18:59:19.190Z,4.35
2022-12-25T19:01:47.631Z,3.33
2022-12-25T19:04:18.571Z,3.35
2022-12-25T19:06:48.030Z,3.50
2022-12-25T19:09:16.806Z,2.85
2022-12-25T19:11:46.841Z,3.60
2022-12-25T19:14:15.702Z,3.20
2022-12-25T19:16:44.607Z,2.97
2022-12-25T19:19:14.324Z,3.10
2022-12-25T19:21:43.710Z,2.17
2022-12-25T19:24:11.902Z,4.10
2022-12-25T19:26:39.964Z,6.00
2022-12-25T19:29:08.812Z,5.50
2022-12-25T19:31:38.313Z,6.50
2022-12-25T19:34:08.220Z,8.35
2022-12-25T19:36:38.076Z,3.92
2022-12-25T19:39:07.928Z,3.28
2022-12-25T19:41:36.382Z,3.40
2022-12-25T19:44:05.700Z,4.93
2022-12-25T19:46:40.753Z,9.88
2022-12-25T19:49:14.854Z,10.07
2022-12-25T19:51:45.302Z,8.13
2022-12-25T19:54:17.205Z,6.28
2022-12-25T19:56:45.584Z,5.37
2022-12-25T19:59:14.832Z,12.88
2022-12-25T20:01:43.577Z,13.77
2022-12-25T20:04:12.351Z,9.52
2022-12-25T20:06:42.663Z,10.07
2022-12-25T20:09:21.336Z,8.57
2022-12-25T20:11:50.282Z,6.72
2022-12-25T20:14:19.712Z,6.30
2022-12-25T20:16:48.334Z,7.93
2022-12-25T20:19:16.900Z,8.38
2022-12-25T20:21:45.918Z,11.55
2022-12-25T20:24:14.004Z,5.18
2022-12-25T20:26:45.349Z,3.60
2022-12-25T20:29:16.354Z,9.07
2022-12-25T20:31:45.158Z,8.27
2022-12-25T20:34:13.348Z,5.28
2022-12-25T20:36:45.325Z,7.50
2022-12-25T20:39:13.756Z,8.75
2022-12-25T20:41:45.164Z,6.00
2022-12-25T20:44:13.568Z,6.78
2022-12-25T20:46:41.818Z,4.82
2022-12-25T20:49:09.964Z,4.78
2022-12-25T20:51:43.600Z,4.68
2022-12-25T20:54:13.980Z,4.03
2022-12-25T20:56:42.367Z,3.58
2022-12-25T20:59:11.845Z,3.78
2022-12-25T21:01:42.112Z,3.78
2022-12-25T21:04:16.012Z,7.15
2022-12-25T21:06:45.283Z,14.30
2022-12-25T21:09:13.724Z,6.97
2022-12-25T21:11:41.743Z,6.55
2022-12-25T21:14:10.022Z,7.47
2022-12-25T21:16:38.583Z,8.70
2022-12-25T21:19:06.777Z,7.53
2022-12-25T21:21:36.203Z,7.10
2022-12-25T21:24:04.756Z,4.07
2022-12-25T21:26:32.869Z,4.87
2022-12-25T21:29:04.097Z,3.67
2022-12-25T21:31:55.819Z,2.83
2022-12-25T21:34:23.992Z,3.40
2022-12-25T21:36:52.348Z,3.60
2022-12-25T21:39:20.456Z,4.95
2022-12-25T21:41:49.004Z,4.62
2022-12-25T21:44:17.330Z,4.07
2022-12-25T21:46:45.427Z,5.22
2022-12-25T21:49:33.851Z,4.62
2022-12-25T21:52:08.347Z,4.57
2022-12-25T21:54:36.953Z,4.33
2022-12-25T21:57:06.138Z,4.68
2022-12-25T21:59:34.409Z,3.90
2022-12-25T22:02:02.658Z,3.30
2022-12-25T22:04:31.345Z,3.58
2022-12-25T22:07:17.815Z,3.12
2022-12-25T22:09:48.667Z,4.75
2022-12-25T22:12:37.495Z,4.93
2022-12-25T22:15:09.562Z,4.55
2022-12-25T22:18:01.640Z,4.82
2022-12-25T22:20:35.600Z,4.32
2022-12-25T22:23:05.135Z,4.55
2022-12-25T22:25:33.496Z,4.50
2022-12-25T22:28:01.653Z,4.93
2022-12-25T22:30:30.286Z,6.00
2022-12-25T22:32:58.915Z,5.10
2022-12-25T22:35:26.933Z,6.12
2022-12-25T22:37:55.168Z,5.90
2022-12-25T22:40:23.661Z,5.97
2022-12-25T22:42:55.637Z,4.85
2022-12-25T22:45:24.818Z,5.72
2022-12-25T22:47:53.212Z,5.20
2022-12-25T22:50:21.669Z,6.12
2022-12-25T22:52:50.306Z,5.87
2022-12-25T22:55:20.284Z,6.18
2022-12-25T22:57:49.079Z,6.40
2022-12-25T23:00:17.623Z,6.65
2022-12-25T23:02:46.074Z,6.18
2022-12-25T23:05:14.337Z,5.62
2022-12-25T23:07:42.684Z,6.32
2022-12-25T23:10:11.851Z,4.65
2022-12-25T23:12:58.492Z,5.60
2022-12-25T23:15:28.171Z,6.97
2022-12-25T23:18:14.646Z,4.87
2022-12-25T23:21:02.202Z,5.75
2022-12-25T23:23:48.931Z,5.95
2022-12-25T23:26:20.494Z,5.53
2022-12-25T23:29:23.923Z,4.97
2022-12-25T23:31:53.762Z,6.10
2022-12-25T23:34:22.728Z,6.43
2022-12-25T23:36:50.833Z,5.07
2022-12-25T23:39:19.580Z,4.80
2022-12-25T23:41:48.945Z,4.78
2022-12-25T23:44:17.101Z,4.87
2022-12-25T23:46:52.616Z,5.60
2022-12-25T23:49:23.033Z,5.50
2022-12-25T23:51:51.575Z,3.80
2022-12-25T23:54:25.978Z,4.25
2022-12-25T23:56:55.120Z,5.07
2022-12-25T23:59:28.137Z,4.28
